Погода Сингуилуканна неделю

Идальго, Мексика

03 - 09 марта
  • 03марта
    Сегодня
    +12°
    +29°
    Ясно и безоблачно
    ВремяПогодаТемператураВлажностьДавлениеВетер, м/сВероятность осадков
    00:00Ясно и безоблачно+15°C65 %567 мм1.5 м/с5 %
    03:00Ясно и безоблачно+13°C47 %565 мм1.9 м/с6 %
    06:00Ясно и безоблачно+11°C53 %565 мм2.5 м/с3 %
    09:00Ясно и безоблачно+16°C37 %568 мм1.9 м/с2 %
    12:00Ясно и безоблачно+24°C22 %571 мм3.1 м/с2 %
    15:00Ясно и безоблачно+28°C13 %570 мм3.1 м/с2 %
    18:00Небольшая облачность+25°C29 %568 мм1.6 м/с2 %
    21:00Ясно и безоблачно+17°C69 %567 мм1.0 м/с2 %
  • 04марта
    Понедельник
    +12°
    +29°
    Облачно с прояснениями
    ВремяПогодаТемператураВлажностьДавлениеВетер, м/сВероятность осадков
    00:00Ясно и безоблачно+16°C51 %567 мм2.0 м/с2 %
    03:00Практически безоблачно+14°C54 %565 мм2.1 м/с2 %
    06:00Небольшая облачность+13°C53 %565 мм2.1 м/с2 %
    09:00Небольшая облачность+17°C37 %568 мм1.8 м/с2 %
    12:00Облачно с прояснениями+26°C24 %570 мм1.5 м/с2 %
    15:00Облачно с прояснениями+29°C19 %569 мм2.4 м/с11 %
    18:00Облачно с прояснениями+24°C36 %568 мм1.4 м/с19 %
    21:00Ясно и безоблачно+17°C78 %567 мм0.4 м/с2 %
  • 05марта
    Вторник
    +11°
    +29°
    Практически безоблачно
    ВремяПогодаТемператураВлажностьДавлениеВетер, м/сВероятность осадков
    00:00Ясно и безоблачно+16°C59 %566 мм1.5 м/с2 %
    03:00Ясно и безоблачно+14°C45 %565 мм1.8 м/с2 %
    06:00Ясно и безоблачно+14°C46 %565 мм2.1 м/с2 %
    09:00Ясно и безоблачно+16°C31 %567 мм1.8 м/с2 %
    12:00Ясно и безоблачно+25°C14 %570 мм2.8 м/с2 %
    15:00Практически безоблачно+29°C9 %569 мм3.7 м/с2 %
    18:00Облачно с прояснениями+22°C55 %568 мм4.1 м/с15 %
    21:00Облачно с прояснениями+17°C78 %568 мм2.8 м/с2 %
  • 06марта
    Среда
    +12°
    +30°
    Небольшая облачность
    ВремяПогодаТемператураВлажностьДавлениеВетер, м/сВероятность осадков
    00:00Облачно с прояснениями+16°C57 %566 мм1.4 м/с2 %
    03:00Ясно и безоблачно+15°C48 %565 мм1.3 м/с2 %
    06:00Ясно и безоблачно+13°C53 %564 мм1.8 м/с2 %
    09:00Ясно и безоблачно+17°C34 %568 мм2.0 м/с2 %
    12:00Ясно и безоблачно+26°C21 %571 мм1.6 м/с2 %
    15:00Небольшая облачность+29°C17 %570 мм2.0 м/с4 %
    18:00Небольшая облачность+22°C59 %568 мм3.3 м/с2 %
    21:00Облачно с прояснениями+18°C76 %567 мм1.2 м/с2 %
Мы используем cookies
Соглашаюсь